createdAt,value
2022-08-17T00:00:12.818Z,23.71
2022-08-17T00:02:57.544Z,23.68
2022-08-17T00:05:24.543Z,23.66
2022-08-17T00:07:51.185Z,23.65
2022-08-17T00:10:17.564Z,23.64
2022-08-17T00:12:51.218Z,23.64
2022-08-17T00:15:17.816Z,23.62
2022-08-17T00:17:44.125Z,23.61
2022-08-17T00:20:10.824Z,23.59
2022-08-17T00:22:37.720Z,23.56
2022-08-17T00:25:04.263Z,23.53
2022-08-17T00:27:37.349Z,23.50
2022-08-17T00:30:04.644Z,23.47
2022-08-17T00:33:15.195Z,23.44
2022-08-17T00:35:20.413Z,23.42
2022-08-17T00:37:47.617Z,23.41
2022-08-17T00:40:14.455Z,23.37
2022-08-17T00:42:40.802Z,23.34
2022-08-17T00:45:07.336Z,23.32
2022-08-17T00:47:33.701Z,23.28
2022-08-17T00:50:00.122Z,23.26
2022-08-17T00:52:26.412Z,23.22
2022-08-17T00:54:52.784Z,23.18
2022-08-17T00:57:19.141Z,23.16
2022-08-17T00:59:46.373Z,23.14
2022-08-17T01:02:22.487Z,23.13
2022-08-17T01:04:49.250Z,23.11
2022-08-17T01:07:15.558Z,23.09
2022-08-17T01:09:41.894Z,23.06
2022-08-17T01:12:08.222Z,23.03
2022-08-17T01:14:36.747Z,23.03
2022-08-17T01:17:03.106Z,23.00
2022-08-17T01:19:29.665Z,22.99
2022-08-17T01:21:55.984Z,22.94
2022-08-17T01:24:22.580Z,22.91
2022-08-17T01:26:48.837Z,22.87
2022-08-17T01:29:16.245Z,22.84
2022-08-17T01:31:42.594Z,22.82
2022-08-17T01:34:09.267Z,22.79
2022-08-17T01:36:35.536Z,22.79
2022-08-17T01:39:01.812Z,22.75
2022-08-17T01:41:28.872Z,22.73
2022-08-17T01:43:55.600Z,22.72
2022-08-17T01:46:21.910Z,22.71
2022-08-17T01:48:48.494Z,22.69
2022-08-17T01:51:15.730Z,22.68
2022-08-17T01:53:42.190Z,22.65
2022-08-17T01:56:09.217Z,22.65
2022-08-17T01:58:36.553Z,22.63
2022-08-17T02:01:03.216Z,22.64
2022-08-17T02:03:29.607Z,22.62
2022-08-17T02:05:55.865Z,22.62
2022-08-17T02:08:38.104Z,22.59
2022-08-17T02:11:11.289Z,22.56
2022-08-17T02:13:38.036Z,22.51
2022-08-17T02:16:04.351Z,22.48
2022-08-17T02:18:30.624Z,22.46
2022-08-17T02:20:56.992Z,22.45
2022-08-17T02:23:24.160Z,22.43
2022-08-17T02:25:50.454Z,22.42
2022-08-17T02:28:16.866Z,22.39
2022-08-17T02:31:00.912Z,22.36
2022-08-17T02:33:42.775Z,22.31
2022-08-17T02:36:10.102Z,22.30
2022-08-17T02:38:36.889Z,22.28
2022-08-17T02:41:03.378Z,22.27
2022-08-17T02:43:29.982Z,22.24
2022-08-17T02:45:56.255Z,22.25
2022-08-17T02:48:28.126Z,22.22
2022-08-17T02:50:57.736Z,22.21
2022-08-17T02:53:24.126Z,22.21
2022-08-17T02:55:59.536Z,22.20
2022-08-17T02:58:36.264Z,22.19
2022-08-17T03:01:05.033Z,22.18
2022-08-17T03:03:31.313Z,22.16
2022-08-17T03:05:57.610Z,22.12
2022-08-17T03:08:23.934Z,22.09
2022-08-17T03:10:51.554Z,22.08
2022-08-17T03:13:17.952Z,22.07
2022-08-17T03:15:44.510Z,22.06
2022-08-17T03:18:11.585Z,22.04
2022-08-17T03:20:51.793Z,22.01
2022-08-17T03:23:23.725Z,22.01
2022-08-17T03:25:53.038Z,21.99
2022-08-17T03:28:19.732Z,21.93
2022-08-17T03:30:46.685Z,21.89
2022-08-17T03:33:13.786Z,21.86
2022-08-17T03:35:40.687Z,21.85
2022-08-17T03:38:06.994Z,21.83
2022-08-17T03:40:43.786Z,21.83
2022-08-17T03:43:19.681Z,21.82
2022-08-17T03:45:47.252Z,21.81
2022-08-17T03:48:13.877Z,21.80
2022-08-17T03:50:40.759Z,21.78
2022-08-17T03:53:08.056Z,21.75
2022-08-17T03:55:36.051Z,21.72
2022-08-17T03:58:03.135Z,21.70
2022-08-17T04:00:29.510Z,21.69
2022-08-17T04:02:57.009Z,21.67
2022-08-17T04:05:23.557Z,21.66
2022-08-17T04:07:49.911Z,21.64
2022-08-17T04:10:16.543Z,21.65
2022-08-17T04:12:43.047Z,21.64
2022-08-17T04:15:10.093Z,21.64
2022-08-17T04:17:37.164Z,21.63
2022-08-17T04:20:03.583Z,21.63
2022-08-17T04:22:34.215Z,21.62
2022-08-17T04:25:00.955Z,21.67
2022-08-17T04:27:27.438Z,21.66
2022-08-17T04:29:55.982Z,21.68
2022-08-17T04:33:05.270Z,21.70
2022-08-17T04:35:10.199Z,21.73
2022-08-17T04:37:36.523Z,21.72
2022-08-17T04:40:04.371Z,21.66
2022-08-17T04:42:30.913Z,21.64
2022-08-17T04:44:58.058Z,21.65
2022-08-17T04:47:24.604Z,21.69
2022-08-17T04:49:51.136Z,21.70
2022-08-17T04:52:37.478Z,21.70
2022-08-17T04:55:05.149Z,21.75
2022-08-17T04:57:38.445Z,21.78
2022-08-17T05:00:06.979Z,21.77
2022-08-17T05:02:33.356Z,21.78
2022-08-17T05:05:01.858Z,21.80
2022-08-17T05:07:31.624Z,21.85
2022-08-17T05:09:58.388Z,21.97
2022-08-17T05:12:26.852Z,22.06
2022-08-17T05:14:53.132Z,22.15
2022-08-17T05:17:19.620Z,22.27
2022-08-17T05:19:51.402Z,22.35
2022-08-17T05:22:19.513Z,22.54
2022-08-17T05:24:53.408Z,22.64
2022-08-17T05:27:21.240Z,22.74
2022-08-17T05:29:49.869Z,22.86
2022-08-17T05:32:39.054Z,22.91
2022-08-17T05:35:02.718Z,22.93
2022-08-17T05:37:29.406Z,23.00
2022-08-17T05:39:56.087Z,23.06
2022-08-17T05:42:22.543Z,23.19
2022-08-17T05:44:48.841Z,23.37
2022-08-17T05:47:16.756Z,23.57
2022-08-17T05:49:43.351Z,23.74
2022-08-17T05:52:12.764Z,23.91
2022-08-17T05:54:39.840Z,24.16
2022-08-17T05:57:06.189Z,24.38
2022-08-17T05:59:33.036Z,24.60
2022-08-17T06:01:59.821Z,24.76
2022-08-17T06:04:26.627Z,24.72
2022-08-17T06:06:53.202Z,24.92
2022-08-17T06:09:26.542Z,25.11
2022-08-17T06:11:55.381Z,25.30
2022-08-17T06:14:25.626Z,25.40
2022-08-17T06:16:52.525Z,25.52
2022-08-17T06:19:18.781Z,25.65
2022-08-17T06:21:46.279Z,25.74
2022-08-17T06:24:12.674Z,25.86
2022-08-17T06:26:42.949Z,26.01
2022-08-17T06:29:18.584Z,26.01
2022-08-17T06:31:46.733Z,26.17
2022-08-17T06:34:14.312Z,26.38
2022-08-17T06:36:40.765Z,26.49
2022-08-17T06:39:07.137Z,26.54
2022-08-17T06:41:33.589Z,26.67
2022-08-17T06:43:59.980Z,26.82
2022-08-17T06:46:26.426Z,27.01
2022-08-17T06:48:52.733Z,27.19
2022-08-17T06:51:19.588Z,27.39
2022-08-17T06:53:45.925Z,27.60
2022-08-17T06:56:12.279Z,27.77
2022-08-17T06:58:40.262Z,27.87
2022-08-17T07:01:08.182Z,28.01
2022-08-17T07:03:34.555Z,28.14
2022-08-17T07:06:03.098Z,28.33
2022-08-17T07:08:32.055Z,28.51
2022-08-17T07:11:00.650Z,28.70
2022-08-17T07:13:26.916Z,28.85
2022-08-17T07:15:56.909Z,29.02
2022-08-17T07:18:23.660Z,29.07
2022-08-17T07:20:51.437Z,29.18
2022-08-17T07:23:17.773Z,29.28
2022-08-17T07:25:44.180Z,29.37
2022-08-17T07:28:10.638Z,29.28
2022-08-17T07:30:45.549Z,29.29
2022-08-17T07:33:14.037Z,29.44
2022-08-17T07:35:43.801Z,29.70
2022-08-17T07:38:25.941Z,29.77
2022-08-17T07:40:53.164Z,29.88
2022-08-17T07:43:23.028Z,29.72
2022-08-17T07:45:50.085Z,29.66
2022-08-17T07:48:16.422Z,29.74
2022-08-17T07:50:43.181Z,29.65
2022-08-17T07:53:16.722Z,29.63
2022-08-17T07:55:43.173Z,29.92
2022-08-17T07:58:09.487Z,30.13
2022-08-17T08:00:35.873Z,30.08
2022-08-17T08:03:04.612Z,30.03
2022-08-17T08:05:49.904Z,29.97
2022-08-17T08:08:18.086Z,30.00
2022-08-17T08:10:45.215Z,30.62
2022-08-17T08:13:12.254Z,30.97
2022-08-17T08:15:40.794Z,31.48
2022-08-17T08:18:11.553Z,31.78
2022-08-17T08:20:51.870Z,31.98
2022-08-17T08:23:19.269Z,32.41
2022-08-17T08:25:45.705Z,32.68
2022-08-17T08:28:15.289Z,32.81
2022-08-17T08:30:41.638Z,32.99
2022-08-17T08:33:08.211Z,33.16
2022-08-17T08:35:35.608Z,33.35
2022-08-17T08:38:03.812Z,33.49
2022-08-17T08:40:30.181Z,33.41
2022-08-17T08:42:56.634Z,33.24
2022-08-17T08:45:23.286Z,33.01
2022-08-17T08:47:49.981Z,32.83
2022-08-17T08:50:37.071Z,32.77
2022-08-17T08:53:03.268Z,32.67
2022-08-17T08:55:29.987Z,32.70
2022-08-17T08:57:57.300Z,32.96
2022-08-17T09:00:23.585Z,32.85
2022-08-17T09:02:49.876Z,32.66
2022-08-17T09:05:16.349Z,32.34
2022-08-17T09:07:42.934Z,31.97
2022-08-17T09:10:09.286Z,31.75
2022-08-17T09:12:35.600Z,31.62
2022-08-17T09:15:02.206Z,31.57
2022-08-17T09:17:28.595Z,31.53
2022-08-17T09:19:54.996Z,31.49
2022-08-17T09:22:21.427Z,31.50
2022-08-17T09:24:47.789Z,31.47
2022-08-17T09:27:14.334Z,31.50
2022-08-17T09:29:40.731Z,31.52
2022-08-17T09:32:07.044Z,31.49
2022-08-17T09:34:33.803Z,31.47
2022-08-17T09:37:00.139Z,31.48
2022-08-17T09:39:27.392Z,31.46
2022-08-17T09:41:53.896Z,31.49
2022-08-17T09:44:22.742Z,31.51
2022-08-17T09:46:49.918Z,31.47
2022-08-17T09:49:16.335Z,31.49
2022-08-17T09:51:44.347Z,31.49
2022-08-17T09:54:37.502Z,31.49
2022-08-17T09:57:25.843Z,31.47
2022-08-17T09:59:44.709Z,31.47
2022-08-17T10:02:13.267Z,31.53
2022-08-17T10:04:40.163Z,31.52
2022-08-17T10:07:06.569Z,31.53
2022-08-17T10:09:33.822Z,31.50
2022-08-17T10:12:00.232Z,31.45
2022-08-17T10:14:38.048Z,31.45
2022-08-17T10:17:10.156Z,31.50
2022-08-17T10:19:37.122Z,31.52
2022-08-17T10:22:14.585Z,31.53
2022-08-17T10:25:23.121Z,31.53
2022-08-17T10:27:37.747Z,31.47
2022-08-17T10:30:04.130Z,31.47
2022-08-17T10:32:30.633Z,31.52
2022-08-17T10:34:57.209Z,31.53
2022-08-17T10:37:23.987Z,31.57
2022-08-17T10:39:52.113Z,31.60
2022-08-17T10:42:30.524Z,31.60
2022-08-17T10:44:59.459Z,31.60
2022-08-17T10:47:27.546Z,31.61
2022-08-17T10:49:55.308Z,31.66
2022-08-17T10:52:21.973Z,31.69
2022-08-17T10:54:51.413Z,31.71
2022-08-17T10:57:18.074Z,31.67
2022-08-17T11:02:37.473Z,31.68
2022-08-17T11:05:03.950Z,31.68
2022-08-17T11:07:30.348Z,31.70
2022-08-17T11:09:58.251Z,31.68
2022-08-17T11:12:25.837Z,31.69
2022-08-17T11:14:53.198Z,31.67
2022-08-17T11:17:19.602Z,31.67
2022-08-17T11:19:46.562Z,31.70
2022-08-17T11:22:15.041Z,31.70
2022-08-17T11:24:43.371Z,31.67
2022-08-17T11:27:15.116Z,31.63
2022-08-17T11:29:41.878Z,31.60
2022-08-17T11:32:08.380Z,31.59
2022-08-17T11:34:37.572Z,31.59
2022-08-17T11:37:05.039Z,31.57
2022-08-17T11:39:31.637Z,31.55
2022-08-17T11:41:57.998Z,31.54
2022-08-17T11:44:25.827Z,31.50
2022-08-17T11:46:52.101Z,31.48
2022-08-17T11:49:18.513Z,31.46
2022-08-17T11:51:45.471Z,31.43
2022-08-17T11:56:58.264Z,31.39
2022-08-17T11:59:25.251Z,31.40
2022-08-17T12:01:52.353Z,31.39
2022-08-17T12:04:19.261Z,31.38
2022-08-17T12:06:45.699Z,31.37
2022-08-17T12:09:12.211Z,31.35
2022-08-17T12:11:55.125Z,31.33
2022-08-17T12:14:40.145Z,31.32
2022-08-17T12:17:11.567Z,31.32
2022-08-17T12:19:37.980Z,31.31
2022-08-17T12:22:04.711Z,31.31
2022-08-17T12:24:31.386Z,31.31
2022-08-17T12:26:58.027Z,31.30
2022-08-17T12:29:35.738Z,31.29
2022-08-17T12:32:04.976Z,31.28
2022-08-17T12:34:31.470Z,31.26
2022-08-17T12:36:57.746Z,31.24
2022-08-17T12:39:26.056Z,31.21
2022-08-17T12:41:52.987Z,31.17
2022-08-17T12:44:19.359Z,31.13
2022-08-17T12:46:45.741Z,31.09
2022-08-17T12:49:12.070Z,31.06
2022-08-17T12:51:38.397Z,31.03
2022-08-17T12:54:04.785Z,31.01
2022-08-17T12:56:31.103Z,30.96
2022-08-17T12:58:57.409Z,30.94
2022-08-17T13:01:24.002Z,30.93
2022-08-17T13:03:51.045Z,30.91
2022-08-17T13:06:17.359Z,30.91
2022-08-17T13:08:43.809Z,30.87
2022-08-17T13:11:10.157Z,30.86
2022-08-17T13:13:36.654Z,30.80
2022-08-17T13:16:02.998Z,30.77
2022-08-17T13:18:29.395Z,30.75
2022-08-17T13:20:55.715Z,30.74
2022-08-17T13:23:23.755Z,30.74
2022-08-17T13:25:53.129Z,30.74
2022-08-17T13:28:30.723Z,30.75
2022-08-17T13:31:02.791Z,30.74
2022-08-17T13:33:44.514Z,30.73
2022-08-17T13:36:12.117Z,30.73
2022-08-17T13:38:45.855Z,30.72
2022-08-17T13:41:12.345Z,30.71
2022-08-17T13:43:38.826Z,30.70
2022-08-17T13:46:05.214Z,30.70
2022-08-17T13:48:31.726Z,30.68
2022-08-17T13:50:58.293Z,30.66
2022-08-17T13:53:24.945Z,30.65
2022-08-17T13:55:52.430Z,30.66
2022-08-17T13:58:18.927Z,30.68
2022-08-17T14:00:45.225Z,30.69
2022-08-17T14:03:11.690Z,30.73
2022-08-17T14:05:38.352Z,30.74
2022-08-17T14:08:06.733Z,30.73
2022-08-17T14:10:33.969Z,30.73
2022-08-17T14:13:00.518Z,30.72
2022-08-17T14:15:55.754Z,30.72
2022-08-17T14:18:13.462Z,30.74
2022-08-17T14:20:39.919Z,30.74
2022-08-17T14:23:09.281Z,30.73
2022-08-17T14:25:35.835Z,30.72
2022-08-17T14:28:02.127Z,30.72
2022-08-17T14:30:29.738Z,30.71
2022-08-17T14:32:56.468Z,30.69
2022-08-17T14:35:22.805Z,30.71
2022-08-17T14:37:49.272Z,30.72
2022-08-17T14:40:15.778Z,30.72
2022-08-17T14:42:42.755Z,30.73
2022-08-17T14:45:31.874Z,30.72
2022-08-17T14:47:55.956Z,30.73
2022-08-17T14:50:23.109Z,30.73
2022-08-17T14:52:50.358Z,30.72
2022-08-17T14:55:16.787Z,30.71
2022-08-17T14:57:43.189Z,30.68
2022-08-17T15:00:09.921Z,30.66
2022-08-17T15:02:36.352Z,30.66
2022-08-17T15:05:02.678Z,30.65
2022-08-17T15:07:30.763Z,30.65
2022-08-17T15:09:57.880Z,30.65
2022-08-17T15:12:26.470Z,30.66
2022-08-17T15:14:58.419Z,30.66
2022-08-17T15:17:24.827Z,30.68
2022-08-17T15:19:51.209Z,30.69
2022-08-17T15:22:17.879Z,30.69
2022-08-17T15:24:44.535Z,30.70
2022-08-17T15:27:10.905Z,30.69
2022-08-17T15:29:37.486Z,30.69
2022-08-17T15:32:04.008Z,30.69
2022-08-17T15:34:30.431Z,30.69
2022-08-17T15:36:56.754Z,30.68
2022-08-17T15:39:23.053Z,30.65
2022-08-17T15:41:58.754Z,30.63
2022-08-17T15:44:32.453Z,30.60
2022-08-17T15:47:01.795Z,30.57
2022-08-17T15:49:28.285Z,30.55
2022-08-17T15:51:54.957Z,30.53
2022-08-17T15:54:22.913Z,30.49
2022-08-17T15:56:49.773Z,30.48
2022-08-17T15:59:17.091Z,30.45
2022-08-17T16:03:14.773Z,30.43
2022-08-17T16:04:31.838Z,30.42
2022-08-17T16:06:58.886Z,30.41
2022-08-17T16:09:25.304Z,30.41
2022-08-17T16:11:53.648Z,30.39
2022-08-17T16:14:21.709Z,30.37
2022-08-17T16:16:49.510Z,30.34
2022-08-17T16:19:15.914Z,30.32
2022-08-17T16:21:43.208Z,30.30
2022-08-17T16:24:13.181Z,30.29
2022-08-17T16:26:41.238Z,30.26
2022-08-17T16:29:08.008Z,30.23
2022-08-17T16:31:34.308Z,30.23
2022-08-17T16:34:17.092Z,30.20
2022-08-17T16:36:51.720Z,30.17
2022-08-17T16:39:21.629Z,30.13
2022-08-17T16:41:47.986Z,30.11
2022-08-17T16:44:15.299Z,30.09
2022-08-17T16:46:41.828Z,30.06
2022-08-17T16:49:12.240Z,30.04
2022-08-17T16:51:53.047Z,30.02
2022-08-17T16:54:19.536Z,30.00
2022-08-17T16:56:45.835Z,29.97
2022-08-17T16:59:29.936Z,29.95
2022-08-17T17:01:58.515Z,29.94
2022-08-17T17:04:24.839Z,29.91
2022-08-17T17:06:51.110Z,29.89
2022-08-17T17:09:17.610Z,29.87
2022-08-17T17:11:44.004Z,29.84
2022-08-17T17:14:13.119Z,29.82
2022-08-17T17:16:44.796Z,29.80
2022-08-17T17:19:11.310Z,29.77
2022-08-17T17:21:37.565Z,29.76
2022-08-17T17:24:03.954Z,29.73
2022-08-17T17:26:30.317Z,29.70
2022-08-17T17:28:56.675Z,29.68
2022-08-17T17:31:23.019Z,29.65
2022-08-17T17:33:49.390Z,29.63
2022-08-17T17:36:15.743Z,29.62
2022-08-17T17:38:42.130Z,29.60
2022-08-17T17:41:08.442Z,29.57
2022-08-17T17:43:39.585Z,29.54
2022-08-17T17:46:26.554Z,29.51
2022-08-17T17:48:53.180Z,29.48
2022-08-17T17:52:06.548Z,29.46
2022-08-17T17:54:06.108Z,29.41
2022-08-17T17:56:43.145Z,29.39
2022-08-17T17:59:12.600Z,29.35
2022-08-17T18:01:39.342Z,29.34
2022-08-17T18:04:08.899Z,29.30
2022-08-17T18:06:47.140Z,29.26
2022-08-17T18:09:19.347Z,29.23
2022-08-17T18:11:46.186Z,29.18
2022-08-17T18:14:17.797Z,29.14
2022-08-17T18:16:44.339Z,29.11
2022-08-17T18:19:10.777Z,29.07
2022-08-17T18:21:37.339Z,29.04
2022-08-17T18:24:03.968Z,29.02
2022-08-17T18:26:30.282Z,28.97
2022-08-17T18:28:58.483Z,28.96
2022-08-17T18:31:24.767Z,28.93
2022-08-17T18:33:51.060Z,28.91
2022-08-17T18:36:17.423Z,28.89
2022-08-17T18:38:43.690Z,28.87
2022-08-17T18:41:12.770Z,28.85
2022-08-17T18:43:53.273Z,28.82
2022-08-17T18:46:28.818Z,28.79
2022-08-17T18:48:55.488Z,28.74
2022-08-17T18:51:40.293Z,28.72
2022-08-17T18:54:08.991Z,28.70
2022-08-17T18:56:35.256Z,28.68
2022-08-17T18:59:01.947Z,28.62
2022-08-17T19:01:42.009Z,28.54
2022-08-17T19:04:14.786Z,28.43
2022-08-17T19:06:41.152Z,28.33
2022-08-17T19:09:07.856Z,28.25
2022-08-17T19:11:34.318Z,28.18
2022-08-17T19:14:00.597Z,28.11
2022-08-17T19:16:26.949Z,28.05
2022-08-17T19:18:53.266Z,28.01
2022-08-17T19:21:20.064Z,27.95
2022-08-17T19:23:53.454Z,27.90
2022-08-17T19:26:50.672Z,27.84
2022-08-17T19:29:06.957Z,27.78
2022-08-17T19:31:33.387Z,27.70
2022-08-17T19:33:59.752Z,27.63
2022-08-17T19:36:26.113Z,27.57
2022-08-17T19:38:52.402Z,27.52
2022-08-17T19:41:18.909Z,27.45
2022-08-17T19:43:45.244Z,27.39
2022-08-17T19:46:11.585Z,27.34
2022-08-17T19:48:37.955Z,27.34
2022-08-17T19:51:04.309Z,27.31
2022-08-17T19:53:54.267Z,27.29
2022-08-17T19:56:17.291Z,27.28
2022-08-17T19:58:44.806Z,27.25
2022-08-17T20:01:11.182Z,27.23
2022-08-17T20:03:38.106Z,27.22
2022-08-17T20:06:13.481Z,27.20
2022-08-17T20:08:40.347Z,27.16
2022-08-17T20:11:06.672Z,27.15
2022-08-17T20:13:33.953Z,27.14
2022-08-17T20:16:00.400Z,27.14
2022-08-17T20:18:26.865Z,27.13
2022-08-17T20:20:54.952Z,27.10
2022-08-17T20:23:22.184Z,27.07
2022-08-17T20:25:48.499Z,27.02
2022-08-17T20:28:14.846Z,26.97
2022-08-17T20:30:41.204Z,26.95
2022-08-17T20:33:07.935Z,26.91
2022-08-17T20:35:40.422Z,26.85
2022-08-17T20:38:07.176Z,26.81
2022-08-17T20:40:34.262Z,26.75
2022-08-17T20:43:01.210Z,26.72
2022-08-17T20:45:28.270Z,26.73
2022-08-17T20:54:04.304Z,26.70
2022-08-17T20:56:31.504Z,26.70
2022-08-17T20:58:58.207Z,26.68
2022-08-17T21:01:24.581Z,26.67
2022-08-17T21:03:53.456Z,26.66
2022-08-17T21:06:20.054Z,26.64
2022-08-17T21:08:46.799Z,26.63
2022-08-17T21:11:13.202Z,26.63
2022-08-17T21:13:39.493Z,26.62
2022-08-17T21:16:05.885Z,26.62
2022-08-17T21:18:32.164Z,26.63
2022-08-17T21:20:58.833Z,26.63
2022-08-17T21:23:25.263Z,26.63
2022-08-17T21:25:51.580Z,26.62
2022-08-17T21:28:18.015Z,26.59
2022-08-17T21:30:46.066Z,26.55
2022-08-17T21:33:15.832Z,26.53
2022-08-17T21:35:43.307Z,26.51
2022-08-17T21:38:09.581Z,26.48
2022-08-17T21:40:36.332Z,26.46
2022-08-17T21:43:02.736Z,26.44
2022-08-17T21:45:29.057Z,26.42
2022-08-17T21:47:55.483Z,26.40
2022-08-17T21:50:21.810Z,26.37
2022-08-17T21:52:48.079Z,26.34
2022-08-17T21:55:14.439Z,26.31
2022-08-17T21:57:40.968Z,26.27
2022-08-17T22:00:19.383Z,26.24
2022-08-17T22:02:45.939Z,26.20
2022-08-17T22:05:12.297Z,26.18
2022-08-17T22:07:41.621Z,26.16
2022-08-17T22:10:07.935Z,26.13
2022-08-17T22:12:34.231Z,26.10
2022-08-17T22:15:00.804Z,25.97
2022-08-17T22:17:27.124Z,26.02
2022-08-17T22:19:53.796Z,26.01
2022-08-17T22:22:20.132Z,26.00
2022-08-17T22:24:47.107Z,25.97
2022-08-17T22:27:13.486Z,25.95
2022-08-17T22:29:39.932Z,25.94
2022-08-17T22:32:06.391Z,25.86
2022-08-17T22:34:32.844Z,25.90
2022-08-17T22:37:03.250Z,25.87
2022-08-17T22:39:30.314Z,25.83
2022-08-17T22:41:56.876Z,25.80
2022-08-17T22:44:23.569Z,25.77
2022-08-17T22:46:49.873Z,25.75
2022-08-17T22:49:16.341Z,25.73
2022-08-17T22:51:42.635Z,25.70
2022-08-17T22:54:08.965Z,25.67
2022-08-17T22:56:35.341Z,25.61
2022-08-17T22:59:02.901Z,25.55
2022-08-17T23:01:29.264Z,25.49
2022-08-17T23:03:55.891Z,25.44
2022-08-17T23:06:22.212Z,25.38
2022-08-17T23:08:48.505Z,25.35
2022-08-17T23:11:14.896Z,25.32
2022-08-17T23:13:41.605Z,25.28
2022-08-17T23:16:07.865Z,25.29
2022-08-17T23:18:34.223Z,25.26
2022-08-17T23:21:01.702Z,25.25
2022-08-17T23:23:29.594Z,25.21
2022-08-17T23:25:55.985Z,25.17
2022-08-17T23:28:22.315Z,25.11
2022-08-17T23:30:48.684Z,25.07
2022-08-17T23:33:14.982Z,25.05
2022-08-17T23:35:41.348Z,25.03
2022-08-17T23:38:07.681Z,25.01
2022-08-17T23:40:34.034Z,25.00
2022-08-17T23:43:00.406Z,24.96
2022-08-17T23:45:30.989Z,24.91
2022-08-17T23:47:57.374Z,24.87
2022-08-17T23:50:23.683Z,24.84
2022-08-17T23:52:56.173Z,24.81
2022-08-17T23:55:23.090Z,24.78
2022-08-17T23:57:49.607Z,24.76
